Time,TemperatureF,DewpointF,PressureIn,WindDirection,WindDirectionDegrees,WindSpeedMPH,WindSpeedGustMPH,Humidity,HourlyPrecipIn,Conditions,Clouds,dailyrainin,SoftwareType,DateUTC
2013-06-04 00:13:00,61.0,61.0,29.80,SW,230,9.0,9.0,100,-99.99,,,-99.99,,2013-06-04 04:13:00,
2013-06-04 00:22:00,61.0,61.0,29.80,SW,230,9.0,9.0,100,-99.99,,,-99.99,,2013-06-04 04:22:00,
2013-06-04 00:33:00,61.0,61.0,29.80,SW,230,9.0,9.0,100,-99.99,,,-99.99,,2013-06-04 04:33:00,
2013-06-04 00:42:00,61.0,61.0,29.80,SW,230,9.0,9.0,100,-99.99,,,-99.99,,2013-06-04 04:42:00,
2013-06-04 00:50:00,61.0,61.0,29.79,WSW,250,9.0,11.0,100,-99.99,,,-99.99,,2013-06-04 04:50:00,
2013-06-04 01:12:00,61.0,61.0,29.79,WSW,250,9.0,11.0,100,-99.99,,,-99.99,,2013-06-04 05:12:00,
2013-06-04 01:31:00,61.0,61.0,29.79,WSW,250,9.0,11.0,100,-99.99,,,-99.99,,2013-06-04 05:31:00,
2013-06-04 01:42:00,61.0,61.0,29.79,WSW,250,9.0,11.0,100,-99.99,,,-99.99,,2013-06-04 05:42:00,
2013-06-04 01:50:00,61.0,61.0,29.82,West,260,11.0,13.0,100,-99.99,,,-99.99,,2013-06-04 05:50:00,
2013-06-04 02:11:00,61.0,61.0,29.82,West,260,11.0,13.0,100,-99.99,,,-99.99,,2013-06-04 06:11:00,
2013-06-04 02:21:00,61.0,61.0,29.82,West,260,11.0,13.0,100,-99.99,,,-99.99,,2013-06-04 06:21:00,
2013-06-04 02:31:00,61.0,61.0,29.82,West,260,11.0,13.0,100,-99.99,,,-99.99,,2013-06-04 06:31:00,
2013-06-04 02:42:00,61.0,61.0,29.82,West,260,11.0,13.0,100,-99.99,,,-99.99,,2013-06-04 06:42:00,
2013-06-04 02:50:00,60.0,60.0,29.83,WNW,290,9.0,11.0,100,-99.99,,,-99.99,,2013-06-04 06:50:00,
2013-06-04 03:11:00,60.0,60.0,29.83,WNW,290,9.0,11.0,100,-99.99,,,-99.99,,2013-06-04 07:11:00,
2013-06-04 03:21:00,60.0,60.0,29.83,WNW,290,9.0,11.0,100,-99.99,,,-99.99,,2013-06-04 07:21:00,
2013-06-04 03:32:00,60.0,60.0,29.83,WNW,290,9.0,11.0,100,-99.99,,,-99.99,,2013-06-04 07:32:00,
2013-06-04 03:41:00,60.0,60.0,29.83,WNW,290,9.0,11.0,100,-99.99,,,-99.99,,2013-06-04 07:41:00,
2013-06-04 03:50:00,62.0,53.0,29.82,NW,320,18.0,22.0,74,-99.99,,,-99.99,,2013-06-04 07:50:00,
2013-06-04 04:11:00,62.0,53.0,29.82,NW,320,18.0,22.0,74,-99.99,,,-99.99,,2013-06-04 08:11:00,
2013-06-04 04:21:00,62.0,53.0,29.82,NW,320,18.0,22.0,74,-99.99,,,-99.99,,2013-06-04 08:21:00,
2013-06-04 04:32:00,62.0,53.0,29.82,NW,320,18.0,22.0,74,-99.99,,,-99.99,,2013-06-04 08:32:00,
2013-06-04 04:41:00,62.0,53.0,29.82,NW,320,18.0,22.0,74,-99.99,,,-99.99,,2013-06-04 08:41:00,
2013-06-04 04:50:00,60.0,51.0,29.85,NW,320,16.0,20.0,71,-99.99,,,-99.99,,2013-06-04 08:50:00,
2013-06-04 05:12:00,60.0,51.0,29.85,NW,320,16.0,20.0,71,-99.99,,,-99.99,,2013-06-04 09:12:00,
2013-06-04 05:21:00,60.0,51.0,29.85,NW,320,16.0,20.0,71,-99.99,,,-99.99,,2013-06-04 09:21:00,
2013-06-04 05:32:00,60.0,51.0,29.85,NW,320,16.0,20.0,71,-99.99,,,-99.99,,2013-06-04 09:32:00,
2013-06-04 05:42:00,60.0,51.0,29.85,NW,320,16.0,20.0,71,-99.99,,,-99.99,,2013-06-04 09:42:00,
2013-06-04 05:50:00,60.0,49.0,29.87,NW,310,16.0,18.0,67,-99.99,,,-99.99,,2013-06-04 09:50:00,
2013-06-04 06:12:00,60.0,49.0,29.87,NW,310,16.0,18.0,67,-99.99,,,-99.99,,2013-06-04 10:12:00,
2013-06-04 06:22:00,60.0,49.0,29.87,NW,310,16.0,18.0,67,-99.99,,,-99.99,,2013-06-04 10:22:00,
2013-06-04 06:32:00,60.0,49.0,29.87,NW,310,16.0,18.0,67,-99.99,,,-99.99,,2013-06-04 10:32:00,
2013-06-04 06:42:00,60.0,49.0,29.87,NW,310,16.0,18.0,67,-99.99,,,-99.99,,2013-06-04 10:42:00,
2013-06-04 06:50:00,58.0,46.0,29.88,NW,320,20.0,25.0,63,-99.99,,,-99.99,,2013-06-04 10:50:00,
2013-06-04 07:11:00,58.0,46.0,29.88,NW,320,20.0,25.0,63,-99.99,,,-99.99,,2013-06-04 11:11:00,
2013-06-04 07:21:00,58.0,46.0,29.88,NW,320,20.0,25.0,63,-99.99,,,-99.99,,2013-06-04 11:21:00,
2013-06-04 07:31:00,58.0,46.0,29.88,NW,320,20.0,25.0,63,-99.99,,,-99.99,,2013-06-04 11:31:00,
2013-06-04 07:41:00,58.0,46.0,29.88,NW,320,20.0,25.0,63,-99.99,,,-99.99,,2013-06-04 11:41:00,
2013-06-04 07:50:00,58.0,46.0,29.88,NW,320,18.0,22.0,65,-99.99,,,-99.99,,2013-06-04 11:50:00,
2013-06-04 08:12:00,58.0,46.0,29.88,NW,320,18.0,22.0,65,-99.99,,,-99.99,,2013-06-04 12:12:00,
2013-06-04 08:21:00,58.0,46.0,29.88,NW,320,18.0,22.0,65,-99.99,,,-99.99,,2013-06-04 12:21:00,
2013-06-04 08:32:00,58.0,46.0,29.88,NW,320,18.0,22.0,65,-99.99,,,-99.99,,2013-06-04 12:32:00,
2013-06-04 08:42:00,58.0,46.0,29.88,NW,320,18.0,22.0,65,-99.99,,,-99.99,,2013-06-04 12:42:00,
2013-06-04 08:50:00,59.0,47.0,29.89,NNW,330,16.0,18.0,63,-99.99,,,-99.99,,2013-06-04 12:50:00,
2013-06-04 09:11:00,59.0,47.0,29.89,NNW,330,16.0,18.0,63,-99.99,,,-99.99,,2013-06-04 13:11:00,
2013-06-04 09:21:00,59.0,47.0,29.89,NNW,330,16.0,18.0,63,-99.99,,,-99.99,,2013-06-04 13:21:00,
2013-06-04 09:31:00,59.0,47.0,29.89,NNW,330,16.0,18.0,63,-99.99,,,-99.99,,2013-06-04 13:31:00,
2013-06-04 09:42:00,59.0,47.0,29.89,NNW,330,16.0,18.0,63,-99.99,,,-99.99,,2013-06-04 13:42:00,
2013-06-04 09:50:00,60.0,46.0,29.91,NNW,330,13.0,16.0,60,-99.99,,,-99.99,,2013-06-04 13:50:00,
2013-06-04 10:11:00,60.0,46.0,29.91,NNW,330,13.0,16.0,60,-99.99,,,-99.99,,2013-06-04 14:11:00,
2013-06-04 10:21:00,60.0,46.0,29.91,NNW,330,13.0,16.0,60,-99.99,,,-99.99,,2013-06-04 14:21:00,
2013-06-04 10:32:00,60.0,46.0,29.91,NNW,330,13.0,16.0,60,-99.99,,,-99.99,,2013-06-04 14:32:00,
2013-06-04 10:42:00,60.0,46.0,29.91,NNW,330,13.0,16.0,60,-99.99,,,-99.99,,2013-06-04 14:42:00,
2013-06-04 10:50:00,60.0,47.0,29.91,WNW,300,9.0,9.0,62,-99.99,,,-99.99,,2013-06-04 14:50:00,
2013-06-04 11:11:00,60.0,47.0,29.91,WNW,300,9.0,9.0,62,-99.99,,,-99.99,,2013-06-04 15:11:00,
2013-06-04 11:21:00,60.0,47.0,29.91,WNW,300,9.0,9.0,62,-99.99,,,-99.99,,2013-06-04 15:21:00,
2013-06-04 11:33:00,60.0,47.0,29.91,WNW,300,9.0,9.0,62,-99.99,,,-99.99,,2013-06-04 15:33:00,
2013-06-04 11:42:00,60.0,47.0,29.91,WNW,300,9.0,9.0,62,-99.99,,,-99.99,,2013-06-04 15:42:00,
2013-06-04 11:50:00,60.0,49.0,29.92,West,280,11.0,16.0,66,-99.99,,,-99.99,,2013-06-04 15:50:00,
2013-06-04 12:12:00,60.0,49.0,29.92,West,280,11.0,16.0,66,-99.99,,,-99.99,,2013-06-04 16:12:00,
2013-06-04 12:22:00,60.0,49.0,29.92,West,280,11.0,16.0,66,-99.99,,,-99.99,,2013-06-04 16:22:00,
2013-06-04 12:32:00,60.0,49.0,29.92,West,280,11.0,16.0,66,-99.99,,,-99.99,,2013-06-04 16:32:00,
2013-06-04 12:42:00,60.0,49.0,29.92,West,280,11.0,16.0,66,-99.99,,,-99.99,,2013-06-04 16:42:00,
2013-06-04 12:50:00,61.0,49.0,29.92,West,270,13.0,16.0,65,-99.99,,,-99.99,,2013-06-04 16:50:00,
2013-06-04 13:11:00,61.0,49.0,29.92,West,270,13.0,16.0,65,-99.99,,,-99.99,,2013-06-04 17:11:00,
2013-06-04 13:22:00,61.0,49.0,29.92,West,270,13.0,16.0,65,-99.99,,,-99.99,,2013-06-04 17:22:00,
2013-06-04 13:32:00,61.0,49.0,29.92,West,270,13.0,16.0,65,-99.99,,,-99.99,,2013-06-04 17:32:00,
2013-06-04 13:42:00,61.0,49.0,29.92,West,270,13.0,16.0,65,-99.99,,,-99.99,,2013-06-04 17:42:00,
2013-06-04 13:50:00,61.0,53.0,29.93,SW,230,13.0,18.0,76,-99.99,,,-99.99,,2013-06-04 17:50:00,
2013-06-04 14:11:00,61.0,53.0,29.93,SW,230,13.0,18.0,76,-99.99,,,-99.99,,2013-06-04 18:11:00,
2013-06-04 14:22:00,61.0,53.0,29.93,SW,230,13.0,18.0,76,-99.99,,,-99.99,,2013-06-04 18:22:00,
2013-06-04 14:31:00,61.0,53.0,29.93,SW,230,13.0,18.0,76,-99.99,,,-99.99,,2013-06-04 18:31:00,
2013-06-04 14:42:00,61.0,53.0,29.93,SW,230,13.0,18.0,76,-99.99,,,-99.99,,2013-06-04 18:42:00,
2013-06-04 15:11:00,60.0,54.0,29.94,WSW,240,11.0,13.0,79,-99.99,,,-99.99,,2013-06-04 19:11:00,
2013-06-04 15:21:00,60.0,54.0,29.94,WSW,240,11.0,13.0,79,-99.99,,,-99.99,,2013-06-04 19:21:00,
2013-06-04 15:31:00,60.0,54.0,29.94,WSW,240,11.0,13.0,79,-99.99,,,-99.99,,2013-06-04 19:31:00,
2013-06-04 16:11:00,61.0,55.0,29.94,SW,230,4.0,4.0,79,-99.99,,,-99.99,,2013-06-04 20:11:00,
2013-06-04 16:21:00,61.0,55.0,29.94,SW,230,4.0,4.0,79,-99.99,,,-99.99,,2013-06-04 20:21:00,
2013-06-04 16:31:00,61.0,55.0,29.94,SW,230,4.0,4.0,79,-99.99,,,-99.99,,2013-06-04 20:31:00,
2013-06-04 16:50:00,63.0,53.0,29.94,SSW,200,2.0,2.0,71,-99.99,,,-99.99,,2013-06-04 20:50:00,
2013-06-04 17:11:00,63.0,53.0,29.94,SSW,200,2.0,2.0,71,-99.99,,,-99.99,,2013-06-04 21:11:00,
2013-06-04 17:22:00,63.0,53.0,29.94,SSW,200,2.0,2.0,71,-99.99,,,-99.99,,2013-06-04 21:22:00,
2013-06-04 17:33:00,63.0,53.0,29.94,SSW,200,2.0,2.0,71,-99.99,,,-99.99,,2013-06-04 21:33:00,
2013-06-04 17:42:00,63.0,53.0,29.94,SSW,200,2.0,2.0,71,-99.99,,,-99.99,,2013-06-04 21:42:00,
2013-06-04 18:12:00,63.0,55.0,29.95,South,190,2.0,2.0,74,-99.99,,,-99.99,,2013-06-04 22:12:00,
2013-06-04 18:22:00,63.0,55.0,29.95,South,190,2.0,2.0,74,-99.99,,,-99.99,,2013-06-04 22:22:00,
2013-06-04 18:32:00,63.0,55.0,29.95,South,190,2.0,2.0,74,-99.99,,,-99.99,,2013-06-04 22:32:00,
2013-06-04 19:11:00,63.0,56.0,29.96,SW,220,7.0,9.0,77,-99.99,,,-99.99,,2013-06-04 23:11:00,
2013-06-04 19:21:00,63.0,56.0,29.96,SW,220,7.0,9.0,77,-99.99,,,-99.99,,2013-06-04 23:21:00,
2013-06-04 19:32:00,63.0,56.0,29.96,SW,220,7.0,9.0,77,-99.99,,,-99.99,,2013-06-04 23:32:00,
2013-06-04 19:50:00,63.0,55.0,29.99,SW,230,7.0,7.0,74,-99.99,,,-99.99,,2013-06-04 23:50:00,
2013-06-04 20:11:00,63.0,55.0,29.99,SW,230,7.0,7.0,74,-99.99,,,-99.99,,2013-06-05 00:11:00,
2013-06-04 20:21:00,63.0,55.0,29.99,SW,230,7.0,7.0,74,-99.99,,,-99.99,,2013-06-05 00:21:00,
2013-06-04 20:32:00,63.0,55.0,29.99,SW,230,7.0,7.0,74,-99.99,,,-99.99,,2013-06-05 00:32:00,
2013-06-04 20:42:00,63.0,55.0,29.99,SW,230,7.0,7.0,74,-99.99,,,-99.99,,2013-06-05 00:42:00,
2013-06-04 20:50:00,62.0,56.0,30.01,SW,220,4.0,7.0,82,-99.99,,,-99.99,,2013-06-05 00:50:00,
2013-06-04 21:11:00,62.0,56.0,30.01,SW,220,4.0,7.0,82,-99.99,,,-99.99,,2013-06-05 01:11:00,
2013-06-04 21:21:00,62.0,56.0,30.01,SW,220,4.0,7.0,82,-99.99,,,-99.99,,2013-06-05 01:21:00,
2013-06-04 21:31:00,62.0,56.0,30.01,SW,220,4.0,7.0,82,-99.99,,,-99.99,,2013-06-05 01:31:00,
2013-06-04 21:42:00,62.0,56.0,30.01,SW,220,4.0,7.0,82,-99.99,,,-99.99,,2013-06-05 01:42:00,
2013-06-04 22:11:00,62.0,58.0,30.03,SSW,210,2.0,2.0,86,-99.99,,,-99.99,,2013-06-05 02:11:00,
2013-06-04 22:21:00,62.0,58.0,30.03,SSW,210,2.0,2.0,86,-99.99,,,-99.99,,2013-06-05 02:21:00,
2013-06-04 22:31:00,62.0,58.0,30.03,SSW,210,2.0,2.0,86,-99.99,,,-99.99,,2013-06-05 02:31:00,
2013-06-04 23:11:00,62.0,58.0,30.06,NE,50,2.0,4.0,88,-99.99,,,-99.99,,2013-06-05 03:11:00,
2013-06-04 23:21:00,62.0,58.0,30.06,NE,50,2.0,4.0,88,-99.99,,,-99.99,,2013-06-05 03:21:00,
2013-06-04 23:32:00,62.0,58.0,30.06,NE,50,2.0,4.0,88,-99.99,,,-99.99,,2013-06-05 03:32:00,
2013-06-04 23:50:00,61.0,52.0,30.07,ENE,60,4.0,7.0,72,-99.99,,,-99.99,,2013-06-05 03:50:00,